Time;durP1;ratioP1;P1;durP2;ratioP2;P2;SDS_P1;SDS_P2;PMS_P1;PMS_P2;Temp;Humidity;BMP_temperature;BMP_pressure;BME280_temperature;BME280_humidity;BME280_pressure;Samples;Min_cycle;Max_cycle;Signal;HPM_P1;HPM_P2
2023/10/19 00:01:58;;;;;;;16.40;12.73;;;10.50;99.90;;;10.45;71.11;95042.59;5096998;28;20934;-57
2023/10/19 00:04:25;;;;;;;18.33;13.17;;;10.50;99.90;;;10.42;71.33;95036.78;5095748;28;20476;-56
2023/10/19 00:06:54;;;;;;;18.70;13.10;;;10.50;99.90;;;10.42;71.41;95036.78;5097201;28;20522;-56
2023/10/19 00:09:20;;;;;;;18.07;13.87;;;10.40;99.90;;;10.40;71.49;95036.91;5095673;28;20545;-57
2023/10/19 00:11:50;;;;;;;22.50;13.00;;;10.40;99.90;;;10.39;71.41;95028.19;5097329;28;20469;-57
2023/10/19 00:14:17;;;;;;;19.40;13.10;;;10.40;99.90;;;10.38;71.40;95030.97;5095485;28;20452;-56
2023/10/19 00:16:54;;;;;;;15.60;11.80;;;10.40;99.90;;;10.37;71.56;95022.22;5096854;28;20974;-56
2023/10/19 00:19:20;;;;;;;17.60;13.40;;;10.40;99.90;;;10.36;71.52;95017.09;5096496;28;20445;-57
2023/10/19 00:21:51;;;;;;;17.30;12.90;;;10.40;99.90;;;10.33;71.31;95012.97;5095982;28;20549;-56
2023/10/19 00:24:19;;;;;;;13.70;12.10;;;10.40;99.90;;;10.32;71.62;95011.25;5096487;28;20450;-57
2023/10/19 00:26:48;;;;;;;18.70;11.87;;;10.30;99.90;;;10.30;71.82;95013.19;5095303;28;20504;-56
2023/10/19 00:29:30;;;;;;;17.90;12.87;;;10.30;99.90;;;10.30;71.76;95010.56;5094172;28;20544;-56
2023/10/19 00:31:59;;;;;;;18.90;13.10;;;10.30;99.90;;;10.28;71.71;95009.84;5098427;28;20465;-59
2023/10/19 00:34:26;;;;;;;19.93;12.20;;;10.30;99.90;;;10.27;71.48;95013.47;5094670;28;20515;-57
2023/10/19 00:36:55;;;;;;;16.63;11.77;;;10.30;99.90;;;10.26;71.33;95013.59;5097347;28;20640;-59
2023/10/19 00:39:23;;;;;;;15.73;12.57;;;10.30;99.90;;;10.23;71.41;95010.25;5094170;28;20546;-57
2023/10/19 00:41:51;;;;;;;20.37;12.73;;;10.30;99.90;;;10.22;71.44;95010.38;5097549;28;20515;-55
2023/10/19 00:44:22;;;;;;;20.50;11.90;;;10.20;99.90;;;10.18;71.20;95004.59;5093879;28;20545;-57
2023/10/19 00:47:00;;;;;;;16.37;11.90;;;10.20;99.90;;;10.15;71.22;95004.84;5096789;28;20461;-55
2023/10/19 00:49:27;;;;;;;22.97;12.37;;;10.20;99.90;;;10.12;71.30;95001.66;5095418;28;20481;-56
2023/10/19 00:52:02;;;;;;;19.80;11.87;;;10.20;99.90;;;10.09;71.01;95004.56;5095847;28;20469;-57
2023/10/19 00:54:33;;;;;;;18.30;12.23;;;10.10;99.90;;;10.05;71.16;95009.22;5096296;28;20942;-57
2023/10/19 00:57:04;;;;;;;18.13;11.73;;;10.10;99.90;;;10.02;71.03;95010.34;5094280;28;20875;-55
2023/10/19 00:59:35;;;;;;;17.80;12.60;;;10.10;99.90;;;9.97;71.12;95007.25;5088925;28;20820;-57
2023/10/19 01:02:16;;;;;;;18.57;12.63;;;10.00;99.90;;;9.93;71.16;95005.88;5084047;28;20470;-57
2023/10/19 01:04:44;;;;;;;17.83;13.37;;;10.00;99.90;;;9.90;71.24;95002.66;5081272;28;20767;-56
2023/10/19 01:07:15;;;;;;;16.70;11.67;;;9.90;99.90;;;9.87;71.58;95006.41;5082116;28;20543;-57
2023/10/19 01:09:44;;;;;;;15.43;12.47;;;9.90;99.90;;;9.85;71.42;95006.53;5082034;28;20439;-56
2023/10/19 01:12:25;;;;;;;22.90;12.50;;;9.90;99.90;;;9.83;71.10;95021.59;5081957;28;20478;-57
2023/10/19 01:15:17;;;;;;;20.37;12.60;;;9.90;99.90;;;9.79;71.71;95020.22;5083642;28;20449;-56
2023/10/19 01:17:48;;;;;;;16.63;13.10;;;9.80;99.90;;;9.75;71.60;95017.97;5067863;28;20481;-56
2023/10/19 01:20:22;;;;;;;18.40;13.53;;;9.80;99.90;;;9.73;72.00;95006.75;5080108;28;20447;-56
2023/10/19 01:23:06;;;;;;;19.67;13.30;;;9.80;99.90;;;9.73;71.82;95009.38;5079754;28;20474;-57
2023/10/19 01:25:36;;;;;;;20.77;12.90;;;9.80;99.90;;;9.69;72.07;95007.00;5081463;28;20493;-58
2023/10/19 01:28:08;;;;;;;17.27;12.67;;;9.70;99.90;;;9.67;71.56;95008.94;5081083;28;20490;-55
2023/10/19 01:30:36;;;;;;;18.53;12.73;;;9.70;99.90;;;9.66;71.72;95016.94;5082538;28;20477;-57
2023/10/19 01:33:04;;;;;;;15.47;12.80;;;9.70;99.90;;;9.63;71.90;95004.09;5078982;28;20455;-58
2023/10/19 01:36:10;;;;;;;14.10;11.80;;;9.70;99.90;;;9.62;71.84;95018.16;5080416;28;20497;-56
2023/10/19 01:38:20;;;;;;;14.97;12.27;;;9.70;99.90;;;9.60;71.64;95015.66;5083676;28;20497;-56
2023/10/19 01:40:48;;;;;;;17.07;13.07;;;9.60;99.90;;;9.58;71.98;95017.59;5080894;28;20443;-57
2023/10/19 01:43:20;;;;;;;12.50;11.20;;;9.60;99.90;;;9.57;71.98;95022.97;5081967;28;20683;-57
2023/10/19 01:45:53;;;;;;;18.90;12.67;;;9.60;99.90;;;9.54;71.79;95018.81;5081483;28;20443;-56
2023/10/19 01:48:22;;;;;;;15.07;11.90;;;9.60;99.90;;;9.51;71.64;95019.94;5080045;28;20500;-55
2023/10/19 01:50:51;;;;;;;16.70;12.83;;;9.60;99.90;;;9.50;71.69;95020.88;5081996;28;20447;-57
2023/10/19 01:53:25;;;;;;;16.77;12.30;;;9.60;99.90;;;9.49;71.92;95016.56;5080008;28;21066;-55
2023/10/19 01:55:57;;;;;;;17.83;12.90;;;9.50;99.90;;;9.47;71.59;95013.25;5082716;28;20506;-56
2023/10/19 01:58:26;;;;;;;18.27;14.07;;;9.50;99.90;;;9.47;71.95;95015.06;5083581;28;20442;-55
2023/10/19 02:00:55;;;;;;;18.87;12.83;;;9.50;99.90;;;9.46;72.09;95005.50;5078897;28;20526;-56
2023/10/19 02:03:24;;;;;;;16.83;13.03;;;9.50;99.90;;;9.45;72.16;95002.06;5083119;28;20446;-57
2023/10/19 02:05:58;;;;;;;16.87;12.80;;;9.50;99.90;;;9.45;71.98;95001.22;5079356;28;20504;-55
2023/10/19 02:08:27;;;;;;;17.53;13.10;;;9.50;99.90;;;9.43;71.99;95003.16;5081586;28;20478;-55
2023/10/19 02:10:53;;;;;;;16.67;12.30;;;9.50;99.90;;;9.42;72.03;95009.34;5079009;28;20532;-57
2023/10/19 02:13:21;;;;;;;16.63;14.17;;;9.50;99.90;;;9.41;71.94;95019.03;5081488;28;20565;-56
2023/10/19 02:15:49;;;;;;;17.10;12.90;;;9.50;99.90;;;9.40;72.14;95016.53;5079250;28;20455;-56
2023/10/19 02:18:17;;;;;;;15.93;12.90;;;9.40;99.90;;;9.38;72.38;95016.66;5081503;28;20954;-57
2023/10/19 02:20:48;;;;;;;19.07;13.10;;;9.40;99.90;;;9.39;72.55;95023.59;5079420;28;20553;-56
2023/10/19 02:23:15;;;;;;;16.00;11.77;;;9.40;99.90;;;9.39;72.27;95017.47;5081414;28;20957;-56
2023/10/19 02:25:43;;;;;;;17.47;13.07;;;9.40;99.90;;;9.37;72.33;95007.09;5079311;28;21027;-55
2023/10/19 02:28:10;;;;;;;20.80;14.53;;;9.40;99.90;;;9.37;72.32;95007.09;5080913;28;20489;-57
2023/10/19 02:30:40;;;;;;;21.23;13.33;;;9.40;99.90;;;9.36;72.44;95013.34;5079363;28;20451;-56
2023/10/19 02:33:09;;;;;;;30.00;14.73;;;9.40;99.90;;;9.35;72.57;95018.72;5080996;28;20902;-56
2023/10/19 02:35:35;;;;;;;19.63;12.57;;;9.40;99.90;;;9.35;72.46;95016.09;5079494;28;20447;-57
2023/10/19 02:38:04;;;;;;;20.60;13.43;;;9.40;99.90;;;9.34;72.37;95015.25;5081313;28;20470;-58
2023/10/19 02:40:31;;;;;;;15.87;12.77;;;9.40;99.90;;;9.33;72.29;95017.03;5078786;28;20455;-56
2023/10/19 02:43:03;;;;;;;18.30;14.03;;;9.40;99.90;;;9.32;72.57;95011.91;5081182;28;20500;-57
2023/10/19 02:45:30;;;;;;;17.47;12.67;;;9.40;99.90;;;9.31;72.21;95008.47;5079021;28;20495;-57
2023/10/19 02:47:59;;;;;;;21.10;14.10;;;9.40;99.90;;;9.30;72.63;95013.84;5080494;28;20763;-57
2023/10/19 02:50:26;;;;;;;18.57;14.90;;;9.30;99.90;;;9.29;72.23;95006.94;5079199;28;20478;-57
2023/10/19 02:52:54;;;;;;;21.23;14.30;;;9.30;99.90;;;9.28;72.52;95011.34;5080973;28;20504;-55
2023/10/19 02:55:23;;;;;;;20.23;13.37;;;9.30;99.90;;;9.25;72.68;95001.13;5078717;28;20486;-56
2023/10/19 02:57:50;;;;;;;21.43;13.07;;;9.30;99.90;;;9.23;72.49;95004.81;5080735;28;20500;-57
2023/10/19 03:00:20;;;;;;;20.73;14.73;;;9.30;99.90;;;9.22;72.99;95006.63;5078799;28;20454;-57
2023/10/19 03:02:48;;;;;;;27.00;14.27;;;9.30;99.90;;;9.21;72.69;95007.56;5080754;28;20534;-56
2023/10/19 03:05:14;;;;;;;20.10;14.33;;;9.30;99.90;;;9.19;72.30;95006.88;5079012;28;20505;-57
2023/10/19 03:07:43;;;;;;;18.40;13.57;;;9.30;99.90;;;9.18;72.65;94996.50;5080667;28;20466;-55
2023/10/19 03:10:22;;;;;;;18.50;13.67;;;9.20;99.90;;;9.18;72.55;95015.69;5078616;28;20488;-57
2023/10/19 03:12:50;;;;;;;20.63;15.10;;;9.20;99.90;;;9.18;72.58;95005.19;5078880;28;20466;-56
2023/10/19 03:15:20;;;;;;;20.40;15.10;;;9.20;99.90;;;9.18;72.33;94996.50;5081006;28;20500;-57
2023/10/19 03:17:48;;;;;;;18.43;13.50;;;9.20;99.90;;;9.16;72.52;94999.25;5079235;28;20470;-56
2023/10/19 03:20:17;;;;;;;21.17;14.37;;;9.20;99.90;;;9.15;72.78;95003.69;5080455;28;20471;-57
2023/10/19 03:22:46;;;;;;;19.07;14.13;;;9.20;99.90;;;9.17;72.75;95002.72;5078530;28;20505;-55
2023/10/19 03:27:58;;;;;;;20.10;13.40;;;9.20;99.90;;;9.14;72.94;95009.06;5078191;28;21045;-56
2023/10/19 03:30:25;;;;;;;22.43;14.10;;;9.20;99.90;;;9.12;72.55;95005.72;5080630;28;20454;-57
2023/10/19 03:32:53;;;;;;;23.43;13.33;;;9.20;99.90;;;9.10;72.55;95002.41;5078147;28;20475;-55
2023/10/19 03:35:21;;;;;;;20.10;14.03;;;9.20;99.90;;;9.08;72.78;94999.06;5080840;28;20461;-56
2023/10/19 03:37:51;;;;;;;22.77;13.80;;;9.20;99.90;;;9.07;72.98;95000.84;5078029;28;20509;-56
2023/10/19 03:40:27;;;;;;;19.10;13.10;;;9.10;99.90;;;9.06;72.53;94993.09;5080319;28;20461;-55
2023/10/19 03:42:55;;;;;;;18.03;12.87;;;9.10;99.90;;;9.06;72.66;94993.09;5079307;28;20551;-58
2023/10/19 03:45:24;;;;;;;22.90;14.23;;;9.10;99.90;;;9.03;72.36;94986.34;5079385;28;20997;-57
2023/10/19 03:47:55;;;;;;;23.87;14.87;;;9.10;99.90;;;9.02;72.56;94983.84;5078842;28;20569;-57
2023/10/19 03:50:23;;;;;;;22.83;13.90;;;9.10;99.90;;;9.01;72.86;94988.22;5079016;28;20438;-57
2023/10/19 03:52:52;;;;;;;30.40;13.93;;;9.10;99.90;;;9.00;72.41;94983.13;5079500;28;20543;-59
2023/10/19 03:55:19;;;;;;;19.20;13.10;;;9.10;99.90;;;8.99;72.30;94981.47;5078628;28;20545;-58
2023/10/19 03:57:50;;;;;;;17.97;13.20;;;9.00;99.90;;;8.98;72.93;94978.00;5079099;28;20995;-56
2023/10/19 04:00:18;;;;;;;20.70;14.23;;;9.00;99.90;;;8.96;72.96;94986.00;5078219;28;20495;-57
2023/10/19 04:02:46;;;;;;;22.07;14.70;;;9.00;99.90;;;8.96;72.80;94991.25;5079505;28;20471;-60
2023/10/19 04:05:20;;;;;;;23.23;13.97;;;9.00;99.90;;;8.98;73.02;94991.13;5078066;28;20453;-55
2023/10/19 04:07:49;;;;;;;25.10;15.10;;;9.10;99.90;;;8.99;72.48;94991.97;5080256;28;20578;-57
2023/10/19 04:10:30;;;;;;;23.83;15.00;;;9.00;99.90;;;8.98;72.40;94993.72;5077040;28;21016;-56
2023/10/19 04:13:00;;;;;;;21.00;15.10;;;9.00;99.90;;;8.96;72.93;94975.50;5077792;28;20471;-57
2023/10/19 04:15:28;;;;;;;22.50;14.47;;;9.00;99.90;;;8.98;72.87;94993.72;5079292;28;20507;-57
2023/10/19 04:17:58;;;;;;;24.73;14.73;;;9.00;99.90;;;8.99;72.80;94997.22;5077710;28;20554;-56
2023/10/19 04:20:29;;;;;;;21.87;14.20;;;9.00;99.90;;;8.99;72.87;94990.16;5078935;28;20458;-58
2023/10/19 04:22:58;;;;;;;20.07;13.40;;;9.10;99.90;;;9.00;72.80;94989.22;5078763;28;20475;-56
2023/10/19 04:25:27;;;;;;;24.50;15.37;;;9.10;99.90;;;9.01;72.75;94992.66;5078739;28;20529;-58
2023/10/19 04:27:56;;;;;;;22.40;14.73;;;9.10;99.90;;;9.02;72.63;94989.09;5078734;28;20563;-58
2023/10/19 04:30:24;;;;;;;31.10;15.27;;;9.10;99.90;;;9.04;73.09;94987.97;5077863;28;20453;-57
2023/10/19 04:32:52;;;;;;;21.90;15.50;;;9.10;99.90;;;9.05;72.92;94980.97;5078364;28;20482;-56
2023/10/19 04:35:22;;;;;;;23.37;14.90;;;9.10;99.90;;;9.07;73.05;94965.91;5081010;28;20454;-57
2023/10/19 04:37:51;;;;;;;27.60;17.37;;;9.10;99.90;;;9.08;72.84;94972.84;5082611;28;20478;-58
2023/10/19 04:40:19;;;;;;;23.93;15.27;;;9.10;99.90;;;9.11;73.21;94967.34;5081413;28;20933;-56
2023/10/19 04:42:47;;;;;;;28.00;15.57;;;9.20;99.90;;;9.11;72.57;94967.34;5082723;28;20470;-57
2023/10/19 04:45:14;;;;;;;23.53;15.70;;;9.20;99.90;;;9.12;73.04;94968.97;5081927;28;20492;-54
2023/10/19 04:47:42;;;;;;;24.43;16.37;;;9.20;99.90;;;9.12;72.82;94974.22;5080678;28;20573;-56
2023/10/19 04:50:10;;;;;;;30.73;17.90;;;9.20;99.90;;;9.11;73.20;94959.47;5081492;28;20575;-58
2023/10/19 04:52:38;;;;;;;34.70;18.83;;;9.20;99.90;;;9.11;72.93;94962.91;5081495;28;20481;-56
2023/10/19 04:55:07;;;;;;;28.63;17.97;;;9.20;99.90;;;9.12;72.91;94963.72;5081651;28;20896;-57
2023/10/19 04:57:35;;;;;;;33.37;17.80;;;9.20;99.90;;;9.10;72.72;94971.72;5081804;28;20478;-57
2023/10/19 05:00:03;;;;;;;31.03;18.87;;;9.20;99.90;;;9.11;73.24;94964.72;5080175;28;20877;-56
2023/10/19 05:02:30;;;;;;;29.50;18.80;;;9.20;99.90;;;9.12;73.24;94964.59;5081691;28;20482;-55
2023/10/19 05:04:57;;;;;;;34.63;19.40;;;9.20;99.90;;;9.12;73.07;94963.72;5081215;28;20450;-57
2023/10/19 05:07:25;;;;;;;37.90;20.00;;;9.20;99.90;;;9.17;73.29;94965.97;5080955;28;20510;-57
2023/10/19 05:09:53;;;;;;;34.47;20.07;;;9.20;99.90;;;9.18;73.64;94963.22;5081115;28;20572;-57
2023/10/19 05:12:22;;;;;;;36.60;21.27;;;9.20;99.90;;;9.21;73.27;94970.00;5080787;28;20494;-56
2023/10/19 05:14:49;;;;;;;40.97;21.03;;;9.30;99.90;;;9.22;73.73;94975.13;5081961;28;20446;-56
2023/10/19 05:17:16;;;;;;;47.77;21.77;;;9.30;99.90;;;9.24;73.65;94967.94;5081235;28;20963;-57
2023/10/19 05:19:44;;;;;;;39.10;23.00;;;9.30;99.90;;;9.25;73.52;94974.88;5081999;28;20445;-60
2023/10/19 05:22:11;;;;;;;48.87;22.07;;;9.30;99.90;;;9.27;73.54;94972.94;5081535;28;20851;-57
2023/10/19 05:24:38;;;;;;;34.77;20.40;;;9.30;99.90;;;9.27;73.06;94972.13;5082135;28;20450;-58
2023/10/19 05:27:05;;;;;;;43.30;22.23;;;9.30;99.90;;;9.26;73.18;94983.56;5080382;28;20817;-56
2023/10/19 05:29:34;;;;;;;47.97;21.70;;;9.30;99.90;;;9.27;73.23;94986.06;5082292;28;20489;-59
2023/10/19 05:32:02;;;;;;;35.37;21.60;;;9.30;99.90;;;9.29;73.38;94985.94;5080345;28;20994;-57
2023/10/19 05:34:32;;;;;;;52.13;22.30;;;9.40;99.90;;;9.33;73.31;94996.03;5082259;28;20462;-57
2023/10/19 05:37:02;;;;;;;46.57;24.00;;;9.40;99.90;;;9.40;73.41;94992.91;5080313;28;20482;-55
2023/10/19 05:39:30;;;;;;;45.23;23.23;;;9.40;99.90;;;9.45;73.49;94988.09;5081862;28;20669;-57
2023/10/19 05:42:00;;;;;;;39.90;23.83;;;9.50;99.90;;;9.50;73.67;94994.63;5080737;28;20503;-57
2023/10/19 05:44:27;;;;;;;41.67;25.20;;;9.50;99.90;;;9.55;73.54;94994.22;5081239;28;20450;-56
2023/10/19 05:46:56;;;;;;;43.97;23.63;;;9.60;99.90;;;9.60;73.10;94993.84;5080317;28;20475;-56
2023/10/19 05:49:23;;;;;;;47.73;25.87;;;9.60;99.90;;;9.66;73.44;94994.13;5081641;28;21005;-57
2023/10/19 05:51:51;;;;;;;50.53;24.97;;;9.70;99.90;;;9.74;73.44;94992.66;5080296;28;20573;-60
2023/10/19 05:54:18;;;;;;;54.90;26.40;;;9.80;99.90;;;9.79;73.41;94990.47;5081305;28;20452;-57
2023/10/19 05:56:45;;;;;;;49.97;26.70;;;9.80;99.90;;;9.85;72.96;94993.41;5080086;28;20471;-55
2023/10/19 05:59:13;;;;;;;44.87;23.97;;;9.90;99.90;;;9.91;73.37;94993.84;5081429;28;20962;-55
2023/10/19 06:01:41;;;;;;;50.80;24.90;;;9.90;99.90;;;9.98;73.27;94994.97;5079510;28;20514;-57
2023/10/19 06:04:10;;;;;;;49.17;24.80;;;10.00;99.90;;;10.07;73.01;94990.69;5081386;28;20903;-57
2023/10/19 06:06:38;;;;;;;47.23;23.33;;;10.10;99.90;;;10.17;73.77;94986.31;5079313;28;20475;-57
2023/10/19 06:09:08;;;;;;;50.93;24.37;;;10.10;99.90;;;10.28;74.00;94994.06;5081358;28;20587;-56
2023/10/19 06:11:37;;;;;;;49.10;24.80;;;10.30;99.90;;;10.42;73.69;94994.69;5080052;28;21012;-57
2023/10/19 06:14:06;;;;;;;54.40;27.50;;;10.40;99.90;;;10.52;73.31;95000.81;5080878;28;20457;-56
2023/10/19 06:16:34;;;;;;;52.70;26.03;;;10.50;99.90;;;10.60;72.91;94993.06;5079443;28;20479;-57
2023/10/19 06:19:02;;;;;;;43.37;25.40;;;10.60;99.90;;;10.66;72.30;94986.41;5080620;28;20485;-57
2023/10/19 06:21:32;;;;;;;49.47;25.90;;;10.60;99.90;;;10.69;71.98;94983.50;5079994;28;20546;-57
2023/10/19 06:24:00;;;;;;;49.20;27.00;;;10.70;99.90;;;10.71;71.75;94978.97;5080429;28;20541;-56
2023/10/19 06:26:27;;;;;;;52.17;24.37;;;10.70;99.90;;;10.74;71.67;94990.03;5079740;28;20842;-55
2023/10/19 06:28:58;;;;;;;45.03;25.20;;;10.70;99.90;;;10.76;71.88;94982.81;5080324;28;20489;-57
2023/10/19 06:31:25;;;;;;;40.00;22.63;;;10.70;99.90;;;10.79;71.68;94991.41;5079605;28;20471;-56
2023/10/19 06:33:53;;;;;;;53.97;24.60;;;10.80;99.90;;;10.82;71.82;94991.16;5080059;28;20458;-58
2023/10/19 06:36:21;;;;;;;38.90;23.63;;;10.80;99.90;;;10.86;71.65;94992.50;5079530;28;20532;-57
2023/10/19 06:38:50;;;;;;;41.73;22.30;;;10.80;99.90;;;10.90;71.62;95000.00;5080695;28;20485;-57
2023/10/19 06:41:18;;;;;;;49.40;26.47;;;10.90;99.90;;;10.96;71.78;95006.50;5079894;28;20471;-56
2023/10/19 06:43:46;;;;;;;51.17;27.30;;;10.90;99.90;;;11.01;71.58;94998.19;5080466;28;20461;-57
2023/10/19 06:46:14;;;;;;;47.93;24.00;;;11.00;99.90;;;11.07;71.73;94987.94;5079568;28;20471;-57
2023/10/19 06:48:42;;;;;;;50.00;25.53;;;11.10;99.90;;;11.15;71.23;95000.41;5079963;28;20478;-57
2023/10/19 06:51:09;;;;;;;43.40;25.20;;;11.10;99.90;;;11.24;71.21;94993.47;5079228;28;20499;-56
2023/10/19 06:53:36;;;;;;;45.00;26.13;;;11.20;99.90;;;11.34;70.76;94978.50;5077553;28;20500;-57
2023/10/19 06:56:06;;;;;;;44.77;25.70;;;11.30;99.90;;;11.44;70.52;94981.91;5080363;28;20481;-56
2023/10/19 06:58:34;;;;;;;46.27;25.87;;;11.40;99.90;;;11.50;70.15;94969.19;5078850;28;20545;-56
2023/10/19 07:01:05;;;;;;;55.03;26.03;;;11.50;99.90;;;11.57;70.33;94967.59;5080334;28;20477;-57
2023/10/19 07:03:32;;;;;;;52.83;25.20;;;11.50;99.90;;;11.62;69.48;94973.28;5079530;28;20447;-56
2023/10/19 07:06:02;;;;;;;49.67;26.37;;;11.60;99.90;;;11.66;69.23;94985.19;5079778;28;20466;-56
2023/10/19 07:08:30;;;;;;;48.33;26.73;;;11.60;99.90;;;11.73;69.33;94993.38;5079317;28;20454;-57
2023/10/19 07:10:57;;;;;;;46.10;25.80;;;11.70;99.90;;;11.81;69.26;94994.28;5079271;28;20585;-55
2023/10/19 07:13:27;;;;;;;44.83;24.80;;;11.80;99.90;;;11.91;69.45;94993.44;5078733;28;20450;-55
2023/10/19 07:15:54;;;;;;;45.40;25.63;;;11.90;99.90;;;11.99;68.68;94985.66;5078963;28;20985;-57
2023/10/19 07:18:22;;;;;;;40.13;24.33;;;12.00;99.90;;;12.07;68.55;94988.41;5079077;28;20514;-55
2023/10/19 07:20:49;;;;;;;43.07;23.97;;;12.00;99.90;;;12.14;68.51;94978.09;5079425;28;20452;-57
2023/10/19 07:23:21;;;;;;;43.57;22.70;;;12.10;99.90;;;12.19;68.42;94979.31;5078719;28;20447;-57
2023/10/19 07:25:52;;;;;;;48.97;26.73;;;12.10;99.90;;;12.34;68.52;94984.91;5079252;28;20472;-55
2023/10/19 07:28:21;;;;;;;39.47;23.60;;;12.20;99.90;;;12.48;68.14;94990.66;5079123;28;20501;-56
2023/10/19 07:30:51;;;;;;;41.00;22.03;;;12.40;99.90;;;12.60;67.73;94996.56;5078100;28;20550;-58
2023/10/19 07:33:19;;;;;;;43.60;21.87;;;12.50;99.90;;;12.68;67.74;94997.47;5079988;28;20874;-57
2023/10/19 07:35:48;;;;;;;40.00;22.63;;;12.60;99.90;;;12.73;67.23;95002.31;5078319;28;20457;-56
2023/10/19 07:38:16;;;;;;;36.00;23.23;;;12.70;99.90;;;12.79;67.24;94998.25;5079681;28;20505;-54
2023/10/19 07:40:44;;;;;;;33.73;21.97;;;12.70;99.90;;;12.84;66.92;94990.69;5077985;28;20480;-55
2023/10/19 07:43:11;;;;;;;52.50;22.50;;;12.80;99.90;;;12.86;67.17;95008.06;5079532;28;20538;-58
2023/10/19 07:45:39;;;;;;;41.33;24.17;;;12.80;99.90;;;12.94;66.74;95007.31;5078187;28;20454;-58
2023/10/19 07:48:10;;;;;;;38.43;23.87;;;12.80;99.90;;;13.02;67.06;95004.72;5079038;28;20462;-56
2023/10/19 07:50:40;;;;;;;37.40;24.07;;;12.90;99.90;;;13.08;66.59;94992.72;5078111;28;20489;-57
2023/10/19 07:53:09;;;;;;;38.17;23.03;;;13.00;99.90;;;13.12;66.41;94998.53;5080274;28;20899;-56
2023/10/19 07:55:38;;;;;;;38.00;22.40;;;13.00;99.90;;;13.19;66.46;94996.94;5077057;28;21216;-58
2023/10/19 07:58:06;;;;;;;38.13;23.13;;;13.10;99.90;;;13.37;66.13;95004.88;5079976;28;20507;-56
2023/10/19 08:00:34;;;;;;;53.83;25.10;;;13.20;99.90;;;13.69;66.32;95000.81;5077589;28;20456;-58
2023/10/19 08:03:02;;;;;;;37.00;24.03;;;13.50;99.90;;;14.21;65.54;94984.06;5080000;28;20540;-56
2023/10/19 08:05:31;;;;;;;32.70;20.80;;;13.90;99.90;;;14.89;64.63;94999.00;5077396;28;20831;-56
2023/10/19 08:08:00;;;;;;;40.33;21.50;;;14.50;99.90;;;15.54;63.43;94982.28;5079772;28;20470;-57
2023/10/19 08:10:27;;;;;;;37.30;22.70;;;15.10;99.90;;;16.20;61.81;94981.31;5080420;28;20490;-56
2023/10/19 08:12:55;;;;;;;34.60;19.97;;;15.80;99.90;;;16.81;60.34;94976.22;5083852;28;21019;-58
2023/10/19 08:15:22;;;;;;;37.63;21.40;;;16.40;99.40;;;17.37;58.62;94974.16;5081650;28;20483;-58
2023/10/19 08:17:53;;;;;;;31.33;21.13;;;16.90;97.80;;;17.86;57.45;94977.34;5083842;28;20474;-55
2023/10/19 08:20:24;;;;;;;34.67;21.60;;;17.50;96.80;;;18.28;56.30;94976.75;5081344;28;20466;-57
2023/10/19 08:22:53;;;;;;;36.77;21.80;;;17.90;95.60;;;18.71;55.85;94983.19;5084497;28;21085;-58
2023/10/19 08:25:20;;;;;;;29.73;20.10;;;18.30;94.90;;;19.14;55.38;94991.28;5083979;28;20462;-57
2023/10/19 08:27:49;;;;;;;29.47;19.50;;;18.70;95.00;;;19.51;53.61;94970.69;5084300;28;20481;-57
2023/10/19 08:30:18;;;;;;;31.13;20.27;;;19.10;93.40;;;19.94;52.84;94967.97;5084110;28;20493;-57
2023/10/19 08:32:47;;;;;;;30.60;20.27;;;19.60;91.80;;;20.35;52.24;94974.34;5079931;28;20539;-56
2023/10/19 08:35:15;;;;;;;29.37;19.00;;;19.90;90.50;;;20.72;50.83;94978.44;5080209;28;20489;-56
2023/10/19 08:37:42;;;;;;;25.27;17.30;;;20.30;89.10;;;21.11;50.54;94982.25;5080530;28;20852;-56
2023/10/19 08:40:14;;;;;;;28.03;18.40;;;20.70;87.90;;;21.47;49.74;94974.88;5080349;28;20456;-58
2023/10/19 08:42:42;;;;;;;19.73;16.20;;;21.10;86.20;;;21.80;48.94;94974.91;5084632;28;20516;-58
2023/10/19 08:45:12;;;;;;;22.57;17.37;;;21.40;84.50;;;22.06;46.46;94975.94;5080632;28;20550;-58
2023/10/19 08:47:42;;;;;;;26.97;16.80;;;21.70;77.10;;;22.17;46.33;94969.94;5083912;28;21036;-56
2023/10/19 08:50:10;;;;;;;16.90;14.97;;;21.80;77.80;;;22.18;46.46;94968.91;5081199;28;20490;-58
2023/10/19 08:52:37;;;;;;;19.50;13.20;;;21.90;77.20;;;22.12;45.67;94975.09;5083550;28;20530;-57
2023/10/19 08:55:06;;;;;;;19.00;15.30;;;21.80;74.70;;;22.15;46.09;94969.31;5080834;28;20442;-57
2023/10/19 08:57:35;;;;;;;23.03;13.83;;;21.80;74.50;;;22.23;44.36;94976.31;5083310;28;20518;-56
2023/10/19 09:00:06;;;;;;;16.80;13.50;;;21.90;71.80;;;22.26;44.60;94967.00;5081184;28;20459;-56
2023/10/19 09:02:34;;;;;;;31.63;15.23;;;22.00;72.10;;;22.39;44.34;94967.00;5083121;28;20480;-55
2023/10/19 09:05:07;;;;;;;20.80;12.53;;;22.10;70.90;;;22.46;45.02;94958.94;5080957;28;20892;-57
2023/10/19 09:07:34;;;;;;;15.03;12.33;;;22.10;72.20;;;22.41;44.34;94951.53;5082109;28;20470;-57
2023/10/19 09:10:02;;;;;;;15.10;11.20;;;22.20;70.20;;;22.40;43.29;94952.56;5081491;28;20490;-57
2023/10/19 09:12:30;;;;;;;14.40;11.73;;;22.10;68.00;;;22.41;43.63;94940.00;5082302;28;20545;-58
2023/10/19 09:14:58;;;;;;;21.00;12.47;;;22.10;68.40;;;22.32;43.99;94939.41;5081490;28;20449;-58
2023/10/19 09:17:29;;;;;;;22.83;12.53;;;22.00;68.70;;;22.18;44.56;94928.72;5082147;28;20470;-56
2023/10/19 09:19:59;;;;;;;21.10;11.37;;;22.00;69.10;;;22.23;44.13;94935.28;5081261;28;20559;-55
2023/10/19 09:22:26;;;;;;;23.63;12.27;;;22.00;68.80;;;22.25;44.12;94934.03;5081151;28;21002;-57
2023/10/19 09:24:55;;;;;;;12.97;11.60;;;22.00;68.80;;;22.21;44.05;94930.13;5081548;28;20455;-58
2023/10/19 09:27:23;;;;;;;12.70;9.27;;;22.00;68.80;;;22.18;44.25;94918.00;5080941;28;20471;-56
2023/10/19 09:29:51;;;;;;;13.47;10.83;;;22.00;68.30;;;22.24;43.46;94929.72;5081323;28;20501;-59
2023/10/19 09:32:20;;;;;;;10.33;9.27;;;22.00;67.90;;;22.36;43.36;94914.66;5081421;28;20454;-57
2023/10/19 09:34:47;;;;;;;11.50;10.40;;;22.10;68.00;;;22.53;43.29;94908.81;5082071;28;20451;-58
2023/10/19 09:37:17;;;;;;;19.20;10.03;;;22.20;68.00;;;22.60;43.10;94908.78;5081040;28;20505;-57
2023/10/19 09:39:45;;;;;;;14.20;10.60;;;22.30;67.50;;;22.58;42.53;94900.94;5081371;28;20458;-57
2023/10/19 09:42:16;;;;;;;12.23;10.00;;;22.30;66.50;;;22.43;42.95;94903.09;5080914;28;20977;-57
2023/10/19 09:44:45;;;;;;;14.70;11.43;;;22.20;66.10;;;22.34;42.90;94899.84;5081878;28;20494;-58
2023/10/19 09:47:14;;;;;;;12.47;10.20;;;22.10;66.60;;;22.14;43.50;94895.34;5080735;28;20873;-58
2023/10/19 09:49:43;;;;;;;11.67;10.47;;;21.90;66.00;;;22.10;43.03;94907.50;5081820;28;20497;-56
2023/10/19 09:52:13;;;;;;;16.83;10.67;;;21.90;66.50;;;22.22;42.80;94894.28;5080011;28;20516;-57
2023/10/19 09:54:52;;;;;;;17.60;10.90;;;21.90;65.30;;;22.27;43.02;94901.69;5081967;28;20442;-57
2023/10/19 09:57:26;;;;;;;14.47;11.17;;;21.90;66.80;;;22.12;42.83;94896.56;5079318;28;20999;-56
2023/10/19 09:59:59;;;;;;;11.87;10.47;;;21.90;66.30;;;21.94;43.24;94897.25;5081558;28;20446;-58
2023/10/19 10:02:26;;;;;;;15.63;11.27;;;21.80;66.40;;;21.94;43.48;94891.91;5080743;28;20463;-58
2023/10/19 10:04:57;;;;;;;12.03;9.93;;;21.70;66.70;;;22.08;43.36;94881.97;5081127;28;20508;-59
2023/10/19 10:07:25;;;;;;;13.97;10.40;;;21.80;66.30;;;22.28;42.92;94873.84;5081135;28;20491;-60
2023/10/19 10:09:53;;;;;;;13.20;10.03;;;21.90;66.40;;;22.46;41.46;94873.19;5080433;28;20462;-58
2023/10/19 10:12:22;;;;;;;10.30;9.30;;;22.10;65.30;;;22.65;41.71;94874.09;5080501;28;20523;-59
2023/10/19 10:15:01;;;;;;;16.20;11.00;;;22.30;64.50;;;22.85;41.54;94868.63;5080299;28;20462;-58
2023/10/19 10:17:29;;;;;;;12.70;10.93;;;22.40;64.90;;;22.89;41.34;94867.16;5082319;28;20474;-57
2023/10/19 10:20:30;;;;;;;17.80;11.27;;;22.50;64.50;;;22.87;40.10;94872.72;5079048;28;20463;-57
2023/10/19 10:23:21;;;;;;;19.77;11.93;;;22.50;63.00;;;22.95;41.47;94862.78;5078795;28;20477;-56
2023/10/19 10:25:49;;;;;;;15.47;10.67;;;22.60;64.20;;;23.03;41.17;94857.16;5081715;28;20461;-57